createdAt,value
2023-12-11T00:01:13.239Z,33.37
2023-12-11T00:03:41.309Z,40.07
2023-12-11T00:06:09.738Z,61.00
2023-12-11T00:08:38.076Z,15.87
2023-12-11T00:11:10.140Z,12.03
2023-12-11T00:13:38.036Z,6.20
2023-12-11T00:16:06.712Z,9.23
2023-12-11T00:18:34.693Z,4.70
2023-12-11T00:21:02.725Z,4.10
2023-12-11T00:23:30.636Z,4.90
2023-12-11T00:25:58.854Z,4.33
2023-12-11T00:28:28.248Z,3.77
2023-12-11T00:30:56.285Z,3.63
2023-12-11T00:33:24.229Z,3.50
2023-12-11T00:35:52.320Z,3.10
2023-12-11T00:38:20.141Z,2.67
2023-12-11T00:40:48.260Z,3.00
2023-12-11T00:43:16.130Z,2.63
2023-12-11T00:45:45.834Z,3.10
2023-12-11T00:48:14.604Z,4.80
2023-12-11T00:50:42.632Z,6.00
2023-12-11T00:53:10.483Z,8.40
2023-12-11T00:55:38.295Z,8.33
2023-12-11T00:58:06.158Z,12.50
2023-12-11T01:00:33.987Z,11.97
2023-12-11T01:03:04.125Z,16.40
2023-12-11T01:05:32.420Z,26.37
2023-12-11T01:08:00.256Z,14.37
2023-12-11T01:10:28.076Z,13.53
2023-12-11T01:12:56.866Z,4.80
2023-12-11T01:15:24.746Z,4.30
2023-12-11T01:17:52.872Z,3.40
2023-12-11T01:20:22.268Z,1.87
2023-12-11T01:22:50.383Z,1.50
2023-12-11T01:25:18.371Z,1.37
2023-12-11T01:27:46.229Z,1.20
2023-12-11T01:30:14.273Z,1.10
2023-12-11T01:32:42.207Z,1.10
2023-12-11T01:35:10.511Z,1.70
2023-12-11T01:37:39.704Z,1.37
2023-12-11T01:40:09.197Z,1.10
2023-12-11T01:42:37.410Z,2.20
2023-12-11T01:45:05.882Z,1.00
2023-12-11T01:47:34.765Z,1.07
2023-12-11T01:50:03.266Z,1.30
2023-12-11T01:52:31.424Z,1.40
2023-12-11T01:55:00.666Z,11.33
2023-12-11T01:57:28.835Z,9.30
2023-12-11T01:59:57.269Z,20.50
2023-12-11T02:02:25.079Z,6.23
2023-12-11T02:04:55.324Z,1.80
2023-12-11T02:07:23.341Z,1.40
2023-12-11T02:09:51.683Z,1.20
2023-12-11T02:12:20.912Z,2.27
2023-12-11T02:14:48.833Z,1.40
2023-12-11T02:17:16.636Z,1.10
2023-12-11T02:19:44.562Z,1.97
2023-12-11T02:22:12.738Z,1.20
2023-12-11T02:24:48.969Z,1.90
2023-12-11T02:27:18.370Z,1.13
2023-12-11T02:29:46.182Z,1.00
2023-12-11T02:32:17.470Z,0.93
2023-12-11T02:34:47.750Z,1.00
2023-12-11T02:37:15.862Z,1.00
2023-12-11T02:39:43.680Z,1.30
2023-12-11T02:42:11.546Z,1.10
2023-12-11T02:44:40.920Z,1.20
2023-12-11T02:47:09.741Z,0.90
2023-12-11T02:49:37.624Z,1.00
2023-12-11T02:52:06.077Z,2.17
2023-12-11T02:54:33.914Z,1.17
2023-12-11T02:57:01.767Z,1.00
2023-12-11T02:59:29.624Z,1.00
2023-12-11T03:01:58.856Z,1.10
2023-12-11T03:04:27.078Z,1.20
2023-12-11T03:06:55.011Z,1.40
2023-12-11T03:09:22.821Z,1.17
2023-12-11T03:11:50.631Z,1.20
2023-12-11T03:14:18.445Z,1.20
2023-12-11T03:16:49.293Z,0.97
2023-12-11T03:19:19.098Z,1.20
2023-12-11T03:21:47.209Z,1.00
2023-12-11T03:24:15.032Z,1.07
2023-12-11T03:26:42.841Z,1.30
2023-12-11T03:29:10.622Z,0.90
2023-12-11T03:31:39.194Z,1.57
2023-12-11T03:34:07.056Z,1.27
2023-12-11T03:36:36.351Z,1.10
2023-12-11T03:39:04.357Z,1.70
2023-12-11T03:41:32.270Z,1.83
2023-12-11T03:44:00.059Z,2.23
2023-12-11T03:46:28.002Z,2.30
2023-12-11T03:48:55.908Z,2.67
2023-12-11T03:51:23.757Z,2.80
2023-12-11T03:53:53.093Z,1.47
2023-12-11T03:56:20.957Z,1.90
2023-12-11T03:58:51.173Z,4.23
2023-12-11T04:01:19.087Z,1.53
2023-12-11T04:03:47.292Z,1.60
2023-12-11T04:06:15.416Z,2.00
2023-12-11T04:08:44.621Z,1.80
2023-12-11T04:11:14.420Z,1.53
2023-12-11T04:13:42.291Z,1.60
2023-12-11T04:16:10.612Z,1.50
2023-12-11T04:18:38.776Z,1.10
2023-12-11T04:21:06.959Z,1.60
2023-12-11T04:23:35.139Z,1.70
2023-12-11T04:26:03.580Z,1.40
2023-12-11T04:28:32.736Z,1.50
2023-12-11T04:31:00.577Z,1.43
2023-12-11T04:33:28.557Z,4.97
2023-12-11T04:35:56.430Z,3.33
2023-12-11T04:38:24.237Z,2.10
2023-12-11T04:40:52.289Z,1.57
2023-12-11T04:43:20.374Z,1.47
2023-12-11T04:45:50.370Z,1.10
2023-12-11T04:48:18.426Z,1.33
2023-12-11T04:50:46.387Z,1.40
2023-12-11T04:53:14.202Z,1.50
2023-12-11T04:55:42.448Z,1.37
2023-12-11T04:58:10.559Z,1.20
2023-12-11T05:00:38.540Z,1.30
2023-12-11T05:03:07.970Z,1.30
2023-12-11T05:05:37.208Z,1.10
2023-12-11T05:08:05.460Z,1.23
2023-12-11T05:10:33.904Z,1.10
2023-12-11T05:13:01.766Z,1.83
2023-12-11T05:15:29.721Z,2.37
2023-12-11T05:17:57.583Z,1.60
2023-12-11T05:20:26.752Z,2.20
2023-12-11T05:22:54.593Z,2.33
2023-12-11T05:25:22.469Z,3.70
2023-12-11T05:27:50.436Z,4.50
2023-12-11T05:30:21.230Z,3.67
2023-12-11T05:32:50.775Z,4.73
2023-12-11T05:35:18.668Z,5.10
2023-12-11T05:37:48.030Z,2.83
2023-12-11T05:40:22.530Z,1.73
2023-12-11T05:42:52.652Z,1.40
2023-12-11T05:45:20.591Z,1.67
2023-12-11T05:47:48.676Z,1.20
2023-12-11T05:50:17.002Z,1.00
2023-12-11T05:52:45.463Z,1.37
2023-12-11T05:55:15.058Z,1.23
2023-12-11T05:57:43.733Z,1.47
2023-12-11T06:00:13.990Z,1.40
2023-12-11T06:02:42.024Z,1.30
2023-12-11T06:05:10.712Z,1.60
2023-12-11T06:07:38.642Z,1.43
2023-12-11T06:10:07.913Z,1.10
2023-12-11T06:12:37.136Z,1.30
2023-12-11T06:15:05.729Z,1.43
2023-12-11T06:17:33.835Z,1.10
2023-12-11T06:20:02.262Z,1.10
2023-12-11T06:22:30.164Z,1.57
2023-12-11T06:24:58.047Z,1.70
2023-12-11T06:27:28.736Z,1.80
2023-12-11T06:29:58.119Z,10.47
2023-12-11T06:32:26.402Z,1.50
2023-12-11T06:34:54.476Z,1.80
2023-12-11T06:37:22.464Z,3.13
2023-12-11T06:39:50.859Z,8.17
2023-12-11T06:42:18.729Z,5.77
2023-12-11T06:44:46.806Z,3.47
2023-12-11T06:47:16.050Z,3.40
2023-12-11T06:49:45.508Z,2.43
2023-12-11T06:52:13.987Z,1.83
2023-12-11T06:54:41.887Z,1.47
2023-12-11T06:57:09.706Z,1.17
2023-12-11T06:59:37.592Z,1.47
2023-12-11T07:02:06.236Z,1.30
2023-12-11T07:04:35.737Z,1.43
2023-12-11T07:07:04.043Z,1.10
2023-12-11T07:09:32.346Z,1.37
2023-12-11T07:12:00.253Z,1.20
2023-12-11T07:14:28.085Z,1.20
2023-12-11T07:16:55.960Z,1.80
2023-12-11T07:19:23.947Z,1.60
2023-12-11T07:21:53.815Z,1.40
2023-12-11T07:24:21.727Z,5.50
2023-12-11T07:26:49.837Z,2.43
2023-12-11T07:29:17.855Z,2.13
2023-12-11T07:31:45.907Z,1.60
2023-12-11T07:34:13.875Z,1.50
2023-12-11T07:36:41.818Z,1.90
2023-12-11T07:39:11.224Z,1.60
2023-12-11T07:41:39.137Z,2.37
2023-12-11T07:44:07.128Z,2.77
2023-12-11T07:46:35.135Z,21.03
2023-12-11T07:49:03.354Z,28.90
2023-12-11T07:51:31.368Z,14.53
2023-12-11T07:54:00.250Z,23.27
2023-12-11T07:56:31.118Z,17.60
2023-12-11T07:58:59.042Z,12.30
2023-12-11T08:01:31.720Z,16.57
2023-12-11T08:04:00.931Z,19.50
2023-12-11T08:06:29.437Z,18.83
2023-12-11T08:08:57.366Z,15.33
2023-12-11T08:11:28.230Z,12.57
2023-12-11T08:13:58.734Z,10.90
2023-12-11T08:16:26.918Z,9.80
2023-12-11T08:18:55.057Z,7.70
2023-12-11T08:21:23.138Z,6.20
2023-12-11T08:23:52.596Z,5.83
2023-12-11T08:26:21.407Z,8.50
2023-12-11T08:28:50.680Z,5.20
2023-12-11T08:31:20.289Z,4.80
2023-12-11T08:33:48.547Z,3.70
2023-12-11T08:36:16.558Z,4.60
2023-12-11T08:38:44.732Z,3.10
2023-12-11T08:41:12.841Z,4.60
2023-12-11T08:43:41.067Z,7.80
2023-12-11T08:46:09.191Z,6.60
2023-12-11T08:48:38.604Z,4.87
2023-12-11T08:51:07.285Z,4.50
2023-12-11T08:53:35.256Z,5.23
2023-12-11T08:56:03.618Z,5.90
2023-12-11T08:58:31.478Z,5.77
2023-12-11T09:00:59.571Z,5.60
2023-12-11T09:03:27.900Z,7.50
2023-12-11T09:05:57.761Z,5.10
2023-12-11T09:08:26.787Z,5.43
2023-12-11T09:10:55.796Z,4.17
2023-12-11T09:13:27.382Z,7.97
2023-12-11T09:15:58.403Z,4.37
2023-12-11T09:18:26.572Z,3.23
2023-12-11T09:20:54.719Z,6.20
2023-12-11T09:23:24.077Z,6.50
2023-12-11T09:25:52.384Z,4.60
2023-12-11T09:28:20.594Z,3.63
2023-12-11T09:30:49.607Z,2.73
2023-12-11T09:33:17.708Z,1.30
2023-12-11T09:35:45.793Z,2.60
2023-12-11T09:38:14.092Z,3.03
2023-12-11T09:40:43.721Z,1.93
2023-12-11T09:43:11.994Z,1.50
2023-12-11T09:45:41.204Z,2.00
2023-12-11T09:48:14.460Z,1.43
2023-12-11T09:50:43.779Z,1.50
2023-12-11T09:53:12.003Z,1.70
2023-12-11T09:55:39.921Z,7.40
2023-12-11T09:58:10.604Z,7.60
2023-12-11T10:00:38.926Z,3.63
2023-12-11T10:03:09.322Z,3.70
2023-12-11T10:05:37.681Z,5.90
2023-12-11T10:08:06.306Z,1.50
2023-12-11T10:10:38.491Z,1.30
2023-12-11T10:13:07.056Z,1.40
2023-12-11T10:15:37.922Z,1.20
2023-12-11T10:18:09.539Z,1.00
2023-12-11T10:20:39.379Z,1.10
2023-12-11T10:23:15.138Z,1.40
2023-12-11T10:25:45.118Z,1.70
2023-12-11T10:28:15.120Z,1.60
2023-12-11T10:30:57.942Z,2.00
2023-12-11T10:33:28.195Z,1.93
2023-12-11T10:39:53.654Z,3.20
2023-12-11T10:42:21.638Z,2.10
2023-12-11T10:44:53.885Z,2.60
2023-12-11T10:47:24.686Z,2.70
2023-12-11T10:49:53.159Z,2.90
2023-12-11T10:52:21.449Z,3.00
2023-12-11T10:54:49.774Z,3.13
2023-12-11T10:57:18.988Z,5.03
2023-12-11T10:59:47.469Z,8.43
2023-12-11T11:02:19.507Z,4.40
2023-12-11T11:04:49.918Z,3.50
2023-12-11T11:07:26.786Z,2.40
2023-12-11T11:10:01.801Z,3.33
2023-12-11T11:12:38.910Z,3.17
2023-12-11T11:15:10.350Z,3.47
2023-12-11T11:18:04.915Z,3.10
2023-12-11T11:20:35.516Z,2.90
2023-12-11T11:23:28.095Z,1.97
2023-12-11T11:25:57.132Z,0.93
2023-12-11T11:28:39.447Z,1.47
2023-12-11T11:31:18.835Z,1.30
2023-12-11T11:33:54.924Z,1.27
2023-12-11T11:36:48.303Z,1.60
2023-12-11T11:39:16.655Z,0.90
2023-12-11T11:41:45.733Z,1.10
2023-12-11T11:44:16.906Z,2.03
2023-12-11T11:46:55.413Z,1.47
2023-12-11T11:49:32.727Z,1.60
2023-12-11T11:52:05.916Z,1.83
2023-12-11T11:54:34.741Z,1.60
2023-12-11T11:57:03.096Z,1.37
2023-12-11T11:59:31.054Z,1.87
2023-12-11T12:02:00.144Z,1.00
2023-12-11T12:04:33.369Z,1.57
2023-12-11T12:07:04.389Z,1.47
2023-12-11T12:09:33.363Z,2.03
2023-12-11T12:12:02.257Z,1.83
2023-12-11T12:14:30.543Z,2.63
2023-12-11T12:16:59.879Z,5.60
2023-12-11T12:19:31.626Z,4.80
2023-12-11T12:22:00.320Z,5.23
2023-12-11T12:24:30.785Z,2.70
2023-12-11T12:27:02.090Z,2.37
2023-12-11T12:29:33.171Z,2.70
2023-12-11T12:32:01.740Z,2.20
2023-12-11T12:34:33.152Z,2.57
2023-12-11T12:37:04.203Z,2.60
2023-12-11T12:39:33.814Z,3.20
2023-12-11T12:42:02.646Z,3.30
2023-12-11T12:44:31.299Z,4.00
2023-12-11T12:47:02.932Z,4.60
2023-12-11T12:49:33.438Z,5.10
2023-12-11T12:52:01.757Z,3.00
2023-12-11T12:54:29.931Z,3.17
2023-12-11T12:57:00.702Z,3.30
2023-12-11T12:59:28.873Z,3.80
2023-12-11T13:01:57.088Z,9.90
2023-12-11T13:04:25.329Z,14.97
2023-12-11T13:06:53.714Z,18.17
2023-12-11T13:09:33.141Z,25.37
2023-12-11T13:12:04.141Z,12.00
2023-12-11T13:14:32.038Z,9.00
2023-12-11T13:17:00.084Z,6.33
2023-12-11T13:19:28.295Z,5.37
2023-12-11T13:21:57.505Z,11.87
2023-12-11T13:24:26.047Z,21.50
2023-12-11T13:26:54.163Z,7.57
2023-12-11T13:29:23.747Z,3.43
2023-12-11T13:31:53.627Z,1.50
2023-12-11T13:34:21.713Z,2.33
2023-12-11T13:36:50.204Z,3.33
2023-12-11T13:39:18.709Z,32.63
2023-12-11T13:41:46.799Z,12.80
2023-12-11T13:44:14.950Z,5.33
2023-12-11T13:46:44.553Z,6.37
2023-12-11T13:49:12.829Z,12.30
2023-12-11T13:51:40.949Z,7.90
2023-12-11T13:54:08.925Z,6.43
2023-12-11T13:56:36.989Z,5.57
2023-12-11T13:59:06.169Z,2.80
2023-12-11T14:01:35.240Z,1.80
2023-12-11T14:04:06.457Z,1.70
2023-12-11T14:06:34.752Z,1.83
2023-12-11T14:09:04.817Z,2.87
2023-12-11T14:11:32.953Z,1.63
2023-12-11T14:14:01.123Z,2.10
2023-12-11T14:16:29.399Z,3.03
2023-12-11T14:18:57.725Z,13.43
2023-12-11T14:21:27.294Z,2.00
2023-12-11T14:23:55.430Z,3.93
2023-12-11T14:26:23.509Z,1.50
2023-12-11T14:28:51.565Z,2.00
2023-12-11T14:31:19.604Z,2.80
2023-12-11T14:33:48.190Z,1.47
2023-12-11T14:36:22.284Z,1.37
2023-12-11T14:38:56.521Z,1.43
2023-12-11T14:41:24.746Z,1.30
2023-12-11T14:43:53.112Z,1.90
2023-12-11T14:46:21.348Z,1.60
2023-12-11T14:48:49.941Z,1.13
2023-12-11T14:51:18.106Z,2.07
2023-12-11T14:53:46.564Z,9.97
2023-12-11T14:56:16.152Z,3.57
2023-12-11T14:58:44.339Z,2.33
2023-12-11T15:01:14.560Z,3.60
2023-12-11T15:03:42.942Z,2.73
2023-12-11T15:06:11.172Z,1.60
2023-12-11T15:08:40.838Z,1.90
2023-12-11T15:11:09.360Z,2.70
2023-12-11T15:13:38.745Z,1.80
2023-12-11T15:16:08.529Z,1.73
2023-12-11T15:18:36.676Z,2.30
2023-12-11T15:21:05.012Z,2.37
2023-12-11T15:23:33.052Z,2.60
2023-12-11T15:26:01.178Z,1.40
2023-12-11T15:28:30.478Z,1.53
2023-12-11T15:31:12.829Z,2.73
2023-12-11T15:33:43.368Z,1.83
2023-12-11T15:36:15.894Z,2.00
2023-12-11T15:38:44.383Z,1.97
2023-12-11T15:41:14.011Z,2.23
2023-12-11T15:43:43.325Z,2.00
2023-12-11T15:46:13.320Z,1.90
2023-12-11T15:48:45.308Z,1.20
2023-12-11T15:51:16.004Z,1.33
2023-12-11T15:53:45.639Z,1.47
2023-12-11T15:56:17.290Z,1.33
2023-12-11T15:58:46.915Z,1.40
2023-12-11T16:01:17.112Z,1.30
2023-12-11T16:03:45.881Z,1.80
2023-12-11T16:06:14.609Z,1.90
2023-12-11T16:08:42.825Z,15.10
2023-12-11T16:11:15.452Z,23.53
2023-12-11T16:13:44.345Z,8.73
2023-12-11T16:16:13.499Z,2.90
2023-12-11T16:18:45.144Z,2.40
2023-12-11T16:21:13.530Z,8.87
2023-12-11T16:23:41.656Z,8.90
2023-12-11T16:26:15.523Z,12.33
2023-12-11T16:28:44.034Z,8.00
2023-12-11T16:31:12.675Z,12.07
2023-12-11T16:33:41.133Z,15.13
2023-12-11T16:36:14.772Z,15.47
2023-12-11T16:38:43.426Z,8.77
2023-12-11T16:41:12.246Z,8.63
2023-12-11T16:43:49.552Z,5.80
2023-12-11T16:46:18.122Z,3.97
2023-12-11T16:48:46.594Z,10.27
2023-12-11T16:51:16.370Z,2.67
2023-12-11T16:53:46.971Z,2.67
2023-12-11T16:56:16.196Z,5.60
2023-12-11T16:58:44.806Z,3.80
2023-12-11T17:01:15.071Z,3.00
2023-12-11T17:03:43.943Z,2.40
2023-12-11T17:06:17.857Z,2.70
2023-12-11T17:08:47.019Z,3.90
2023-12-11T17:11:15.869Z,7.00
2023-12-11T17:13:44.878Z,4.77
2023-12-11T17:16:13.173Z,4.40
2023-12-11T17:18:44.474Z,4.10
2023-12-11T17:21:22.010Z,2.87
2023-12-11T17:23:55.747Z,3.40
2023-12-11T17:26:25.701Z,2.47
2023-12-11T17:28:54.358Z,3.40
2023-12-11T17:31:22.960Z,4.70
2023-12-11T17:33:52.200Z,3.83
2023-12-11T17:36:20.969Z,3.03
2023-12-11T17:38:49.750Z,2.97
2023-12-11T17:41:21.028Z,6.40
2023-12-11T17:43:49.397Z,4.93
2023-12-11T17:46:18.045Z,5.00
2023-12-11T17:48:47.291Z,2.70
2023-12-11T17:51:16.486Z,1.87
2023-12-11T17:53:44.797Z,3.50
2023-12-11T17:56:16.239Z,3.00
2023-12-11T17:58:46.273Z,2.90
2023-12-11T18:01:14.437Z,3.23
2023-12-11T18:03:43.009Z,4.13
2023-12-11T18:06:18.371Z,3.37
2023-12-11T18:08:47.918Z,3.70
2023-12-11T18:11:17.211Z,3.30
2023-12-11T18:13:47.545Z,2.37
2023-12-11T18:16:16.153Z,1.90
2023-12-11T18:18:44.738Z,1.83
2023-12-11T18:21:13.143Z,1.83
2023-12-11T18:23:41.454Z,1.80
2023-12-11T18:26:12.846Z,2.57
2023-12-11T18:28:41.493Z,3.77
2023-12-11T18:31:11.160Z,4.60
2023-12-11T18:33:40.582Z,4.40
2023-12-11T18:36:09.611Z,5.83
2023-12-11T18:38:39.010Z,6.63
2023-12-11T18:41:07.990Z,10.57
2023-12-11T18:43:37.300Z,5.23
2023-12-11T18:46:07.086Z,4.63
2023-12-11T18:48:37.402Z,5.30
2023-12-11T18:51:06.339Z,5.57
2023-12-11T18:53:34.540Z,16.43
2023-12-11T18:56:03.273Z,11.77
2023-12-11T18:58:31.739Z,14.30
2023-12-11T19:01:01.135Z,10.10
2023-12-11T19:03:30.260Z,9.37
2023-12-11T19:06:00.123Z,7.70
2023-12-11T19:08:28.584Z,14.27
2023-12-11T19:10:56.993Z,19.67
2023-12-11T19:13:25.685Z,27.37
2023-12-11T19:15:54.418Z,18.27
2023-12-11T19:18:25.870Z,22.67
2023-12-11T19:20:54.720Z,30.33
2023-12-11T19:23:24.512Z,27.23
2023-12-11T19:25:54.092Z,23.13
2023-12-11T19:28:23.745Z,23.43
2023-12-11T19:30:53.240Z,21.10
2023-12-11T19:33:22.734Z,22.80
2023-12-11T19:35:51.906Z,27.43
2023-12-11T19:38:20.473Z,23.33
2023-12-11T19:40:50.858Z,21.60
2023-12-11T19:43:19.158Z,21.33
2023-12-11T19:45:47.435Z,22.37
2023-12-11T19:48:17.066Z,20.63
2023-12-11T19:50:44.993Z,17.70
2023-12-11T19:53:13.036Z,20.60
2023-12-11T19:55:41.593Z,18.33
2023-12-11T19:58:11.852Z,19.60
2023-12-11T20:00:40.033Z,23.33
2023-12-11T20:03:08.971Z,18.30
2023-12-11T20:05:38.096Z,19.80
2023-12-11T20:08:06.652Z,23.47
2023-12-11T20:10:35.172Z,21.20
2023-12-11T20:13:03.439Z,27.00
2023-12-11T20:15:33.043Z,24.10
2023-12-11T20:18:01.440Z,26.03
2023-12-11T20:20:29.721Z,24.53
2023-12-11T20:22:57.920Z,27.00
2023-12-11T20:25:26.744Z,25.50
2023-12-11T20:27:55.388Z,29.77
2023-12-11T20:30:23.862Z,25.60
2023-12-11T20:32:53.983Z,21.57
2023-12-11T20:35:22.482Z,23.80
2023-12-11T20:37:50.912Z,23.83
2023-12-11T20:40:20.540Z,28.90
2023-12-11T20:42:49.137Z,23.50
2023-12-11T20:45:19.487Z,25.97
2023-12-11T20:47:49.775Z,24.97
2023-12-11T20:50:19.661Z,35.57
2023-12-11T20:52:49.300Z,34.47
2023-12-11T20:55:17.861Z,32.30
2023-12-11T20:57:46.521Z,26.10
2023-12-11T21:00:15.861Z,24.00
2023-12-11T21:02:45.168Z,26.17
2023-12-11T21:05:13.339Z,24.57
2023-12-11T21:07:44.442Z,27.57
2023-12-11T21:10:13.101Z,23.87
2023-12-11T21:12:41.386Z,13.43
2023-12-11T21:15:10.088Z,11.90
2023-12-11T21:17:41.675Z,14.00
2023-12-11T21:20:10.966Z,12.07
2023-12-11T21:22:39.150Z,7.50
2023-12-11T21:25:09.011Z,10.00
2023-12-11T21:27:37.437Z,8.90
2023-12-11T21:30:10.408Z,5.83
2023-12-11T21:32:40.464Z,7.27
2023-12-11T21:35:09.729Z,6.13
2023-12-11T21:37:38.683Z,8.10
2023-12-11T21:40:09.903Z,13.20
2023-12-11T21:42:38.124Z,13.70
2023-12-11T21:45:07.397Z,6.43
2023-12-11T21:47:36.317Z,9.80
2023-12-11T21:50:06.014Z,8.07
2023-12-11T21:52:34.369Z,7.00
2023-12-11T21:55:02.791Z,10.13
2023-12-11T21:57:32.424Z,7.33
2023-12-11T22:00:00.479Z,6.73
2023-12-11T22:02:28.309Z,8.93
2023-12-11T22:04:56.226Z,5.23
2023-12-11T22:07:24.103Z,3.63
2023-12-11T22:09:52.382Z,3.37
2023-12-11T22:12:20.261Z,2.30
2023-12-11T22:14:49.952Z,2.43
2023-12-11T22:17:17.882Z,4.07
2023-12-11T22:19:45.872Z,4.00
2023-12-11T22:22:13.865Z,7.03
2023-12-11T22:24:41.836Z,5.60
2023-12-11T22:27:09.741Z,6.60
2023-12-11T22:29:38.866Z,5.77
2023-12-11T22:32:08.738Z,7.00
2023-12-11T22:34:36.733Z,5.70
2023-12-11T22:37:05.307Z,4.00
2023-12-11T22:39:33.241Z,4.97
2023-12-11T22:42:01.312Z,5.90
2023-12-11T22:44:29.464Z,5.33
2023-12-11T22:46:57.487Z,5.67
2023-12-11T22:49:26.784Z,6.90
2023-12-11T22:51:55.208Z,6.13
2023-12-11T22:54:23.100Z,6.30
2023-12-11T22:56:51.642Z,5.90
2023-12-11T22:59:19.541Z,6.40
2023-12-11T23:01:48.030Z,6.83
2023-12-11T23:04:16.064Z,7.53
2023-12-11T23:06:46.326Z,7.53
2023-12-11T23:09:14.397Z,6.60
2023-12-11T23:11:44.042Z,6.70
2023-12-11T23:14:12.239Z,5.87
2023-12-11T23:16:40.493Z,5.53
2023-12-11T23:19:08.655Z,7.77
2023-12-11T23:21:36.631Z,7.17
2023-12-11T23:24:06.452Z,4.80
2023-12-11T23:26:34.542Z,4.30
2023-12-11T23:29:02.509Z,4.57
2023-12-11T23:31:30.683Z,6.90
2023-12-11T23:33:59.121Z,6.37
2023-12-11T23:36:27.147Z,8.97
2023-12-11T23:38:55.245Z,6.00
2023-12-11T23:41:24.886Z,6.97
2023-12-11T23:43:54.128Z,7.20
2023-12-11T23:46:22.179Z,6.83
2023-12-11T23:48:51.057Z,6.00
2023-12-11T23:51:19.125Z,8.90
2023-12-11T23:53:47.474Z,7.93
2023-12-11T23:56:15.782Z,6.30
2023-12-11T23:58:46.010Z,7.30
